sensor_id;sensor_type;location;lat;lon;timestamp;pressure;altitude;pressure_sealevel;temperature;humidity
46768;BME280;69007;48.978;18.066;2023-04-08T00:00:11;97546.28;;;2.89;100.00
46768;BME280;69007;48.978;18.066;2023-04-08T00:02:37;97552.25;;;2.91;100.00
46768;BME280;69007;48.978;18.066;2023-04-08T00:05:02;97552.63;;;2.94;100.00
46768;BME280;69007;48.978;18.066;2023-04-08T00:07:28;97571.41;;;3.01;100.00
46768;BME280;69007;48.978;18.066;2023-04-08T00:09:53;97560.84;;;3.00;100.00
46768;BME280;69007;48.978;18.066;2023-04-08T00:12:18;97562.13;;;2.97;100.00
46768;BME280;69007;48.978;18.066;2023-04-08T00:14:44;97552.78;;;3.00;100.00
46768;BME280;69007;48.978;18.066;2023-04-08T00:17:09;97561.66;;;3.00;100.00
46768;BME280;69007;48.978;18.066;2023-04-08T00:19:34;97559.63;;;3.02;100.00
46768;BME280;69007;48.978;18.066;2023-04-08T00:22:00;97544.19;;;2.91;100.00
46768;BME280;69007;48.978;18.066;2023-04-08T00:24:26;97568.09;;;2.99;100.00
46768;BME280;69007;48.978;18.066;2023-04-08T00:26:51;97570.84;;;2.92;100.00
46768;BME280;69007;48.978;18.066;2023-04-08T00:29:17;97566.72;;;2.90;100.00
46768;BME280;69007;48.978;18.066;2023-04-08T00:31:42;97552.34;;;2.78;100.00
46768;BME280;69007;48.978;18.066;2023-04-08T00:34:07;97555.19;;;2.83;100.00
46768;BME280;69007;48.978;18.066;2023-04-08T00:36:33;97550.00;;;2.88;100.00
46768;BME280;69007;48.978;18.066;2023-04-08T00:39:00;97549.94;;;2.94;100.00
46768;BME280;69007;48.978;18.066;2023-04-08T00:41:26;97573.06;;;3.02;100.00
46768;BME280;69007;48.978;18.066;2023-04-08T00:43:51;97549.34;;;2.92;100.00
46768;BME280;69007;48.978;18.066;2023-04-08T00:46:17;97562.13;;;2.97;100.00
46768;BME280;69007;48.978;18.066;2023-04-08T00:48:42;97570.38;;;3.02;100.00
46768;BME280;69007;48.978;18.066;2023-04-08T00:51:08;97557.13;;;3.01;100.00
46768;BME280;69007;48.978;18.066;2023-04-08T00:53:33;97566.41;;;3.05;100.00
46768;BME280;69007;48.978;18.066;2023-04-08T00:55:58;97565.38;;;3.06;100.00
46768;BME280;69007;48.978;18.066;2023-04-08T00:58:26;97567.03;;;3.00;100.00
46768;BME280;69007;48.978;18.066;2023-04-08T01:00:58;97560.63;;;3.01;100.00
46768;BME280;69007;48.978;18.066;2023-04-08T01:03:41;97573.06;;;3.02;100.00
46768;BME280;69007;48.978;18.066;2023-04-08T01:06:14;97573.06;;;3.02;100.00
46768;BME280;69007;48.978;18.066;2023-04-08T01:08:44;97553.81;;;2.99;100.00
46768;BME280;69007;48.978;18.066;2023-04-08T01:11:11;97562.13;;;2.97;100.00
46768;BME280;69007;48.978;18.066;2023-04-08T01:13:40;97569.53;;;3.02;100.00
46768;BME280;69007;48.978;18.066;2023-04-08T01:16:14;97565.47;;;2.92;100.00
46768;BME280;69007;48.978;18.066;2023-04-08T01:18:42;97581.50;;;3.06;100.00
46768;BME280;69007;48.978;18.066;2023-04-08T01:21:10;97588.91;;;3.10;100.00
46768;BME280;69007;48.978;18.066;2023-04-08T01:23:50;97573.22;;;3.07;100.00
46768;BME280;69007;48.978;18.066;2023-04-08T01:26:23;97583.69;;;3.16;100.00
46768;BME280;69007;48.978;18.066;2023-04-08T01:28:52;97585.31;;;3.17;100.00
46768;BME280;69007;48.978;18.066;2023-04-08T01:31:19;97572.84;;;3.04;100.00
46768;BME280;69007;48.978;18.066;2023-04-08T01:33:46;97580.41;;;3.13;100.00
46768;BME280;69007;48.978;18.066;2023-04-08T01:36:13;97564.19;;;2.95;100.00
46768;BME280;69007;48.978;18.066;2023-04-08T01:38:39;97581.94;;;3.03;100.00
46768;BME280;69007;48.978;18.066;2023-04-08T01:41:08;97569.56;;;2.95;100.00
46768;BME280;69007;48.978;18.066;2023-04-08T01:43:35;97579.88;;;2.98;100.00
46768;BME280;69007;48.978;18.066;2023-04-08T01:46:01;97596.50;;;2.88;100.00
46768;BME280;69007;48.978;18.066;2023-04-08T01:48:27;97570.69;;;2.87;100.00
46768;BME280;69007;48.978;18.066;2023-04-08T01:50:54;97574.56;;;2.91;100.00
46768;BME280;69007;48.978;18.066;2023-04-08T01:53:21;97595.38;;;3.03;100.00
46768;BME280;69007;48.978;18.066;2023-04-08T01:55:48;97582.31;;;3.06;100.00
46768;BME280;69007;48.978;18.066;2023-04-08T01:58:19;97577.84;;;2.93;100.00
46768;BME280;69007;48.978;18.066;2023-04-08T02:00:45;97583.19;;;3.00;100.00
46768;BME280;69007;48.978;18.066;2023-04-08T02:03:11;97586.97;;;2.92;100.00
46768;BME280;69007;48.978;18.066;2023-04-08T02:05:39;97587.56;;;2.94;100.00
46768;BME280;69007;48.978;18.066;2023-04-08T02:08:04;97580.78;;;2.85;100.00
46768;BME280;69007;48.978;18.066;2023-04-08T02:10:30;97583.28;;;2.87;100.00
46768;BME280;69007;48.978;18.066;2023-04-08T02:12:55;97596.66;;;2.93;100.00
46768;BME280;69007;48.978;18.066;2023-04-08T02:15:21;97603.31;;;2.91;100.00
46768;BME280;69007;48.978;18.066;2023-04-08T02:17:50;97599.34;;;2.93;100.00
46768;BME280;69007;48.978;18.066;2023-04-08T02:20:29;97602.47;;;2.97;100.00
46768;BME280;69007;48.978;18.066;2023-04-08T02:23:02;97624.38;;;2.94;100.00
46768;BME280;69007;48.978;18.066;2023-04-08T02:25:29;97616.31;;;2.94;100.00
46768;BME280;69007;48.978;18.066;2023-04-08T02:27:56;97593.59;;;2.90;100.00
46768;BME280;69007;48.978;18.066;2023-04-08T02:30:24;97607.16;;;3.02;100.00
46768;BME280;69007;48.978;18.066;2023-04-08T02:32:51;97599.31;;;3.00;100.00
46768;BME280;69007;48.978;18.066;2023-04-08T02:35:18;97603.88;;;3.00;100.00
46768;BME280;69007;48.978;18.066;2023-04-08T02:37:45;97587.19;;;2.91;100.00
46768;BME280;69007;48.978;18.066;2023-04-08T02:40:28;97607.38;;;3.00;100.00
46768;BME280;69007;48.978;18.066;2023-04-08T02:42:54;97609.84;;;3.02;100.00
46768;BME280;69007;48.978;18.066;2023-04-08T02:45:20;97614.41;;;3.01;100.00
46768;BME280;69007;48.978;18.066;2023-04-08T02:47:46;97603.44;;;3.03;100.00
46768;BME280;69007;48.978;18.066;2023-04-08T02:50:12;97618.75;;;3.02;100.00
46768;BME280;69007;48.978;18.066;2023-04-08T02:52:37;97601.00;;;2.94;100.00
46768;BME280;69007;48.978;18.066;2023-04-08T02:55:03;97613.16;;;3.04;100.00
46768;BME280;69007;48.978;18.066;2023-04-08T02:57:30;97607.19;;;2.95;100.00
46768;BME280;69007;48.978;18.066;2023-04-08T02:59:56;97597.13;;;2.90;100.00
46768;BME280;69007;48.978;18.066;2023-04-08T03:02:21;97616.06;;;3.02;100.00
46768;BME280;69007;48.978;18.066;2023-04-08T03:04:46;97618.91;;;3.07;100.00
46768;BME280;69007;48.978;18.066;2023-04-08T03:07:12;97603.66;;;3.01;100.00
46768;BME280;69007;48.978;18.066;2023-04-08T03:09:37;97609.03;;;3.01;100.00
46768;BME280;69007;48.978;18.066;2023-04-08T03:12:02;97630.28;;;3.09;100.00
46768;BME280;69007;48.978;18.066;2023-04-08T03:14:28;97605.91;;;3.04;100.00
46768;BME280;69007;48.978;18.066;2023-04-08T03:16:53;97626.38;;;3.05;100.00
46768;BME280;69007;48.978;18.066;2023-04-08T03:19:18;97616.44;;;3.06;100.00
46768;BME280;69007;48.978;18.066;2023-04-08T03:21:44;97614.63;;;3.00;100.00
46768;BME280;69007;48.978;18.066;2023-04-08T03:24:09;97624.28;;;3.07;100.00
46768;BME280;69007;48.978;18.066;2023-04-08T03:26:34;97614.94;;;3.10;100.00
46768;BME280;69007;48.978;18.066;2023-04-08T03:29:00;97623.03;;;3.10;100.00
46768;BME280;69007;48.978;18.066;2023-04-08T03:31:26;97617.25;;;3.06;100.00
46768;BME280;69007;48.978;18.066;2023-04-08T03:33:51;97624.91;;;3.09;100.00
46768;BME280;69007;48.978;18.066;2023-04-08T03:36:16;97607.16;;;3.02;100.00
46768;BME280;69007;48.978;18.066;2023-04-08T03:38:43;97634.47;;;2.99;100.00
46768;BME280;69007;48.978;18.066;2023-04-08T03:41:08;97617.94;;;2.95;100.00
46768;BME280;69007;48.978;18.066;2023-04-08T03:43:34;97613.91;;;2.86;100.00
46768;BME280;69007;48.978;18.066;2023-04-08T03:45:59;97626.28;;;2.87;100.00
46768;BME280;69007;48.978;18.066;2023-04-08T03:48:24;97620.91;;;2.87;100.00
46768;BME280;69007;48.978;18.066;2023-04-08T03:50:49;97641.19;;;2.83;100.00
46768;BME280;69007;48.978;18.066;2023-04-08T03:53:15;97645.13;;;2.80;100.00
46768;BME280;69007;48.978;18.066;2023-04-08T03:55:40;97623.88;;;2.72;100.00
46768;BME280;69007;48.978;18.066;2023-04-08T03:58:06;97657.50;;;2.88;100.00
46768;BME280;69007;48.978;18.066;2023-04-08T04:00:31;97639.53;;;2.82;100.00
46768;BME280;69007;48.978;18.066;2023-04-08T04:02:56;97632.06;;;2.84;100.00
46768;BME280;69007;48.978;18.066;2023-04-08T04:05:22;97662.22;;;2.92;100.00
46768;BME280;69007;48.978;18.066;2023-04-08T04:07:47;97638.03;;;2.92;100.00
46768;BME280;69007;48.978;18.066;2023-04-08T04:10:12;97644.84;;;2.95;100.00
46768;BME280;69007;48.978;18.066;2023-04-08T04:12:38;97654.72;;;3.01;100.00
46768;BME280;69007;48.978;18.066;2023-04-08T04:15:03;97637.44;;;2.90;100.00
46768;BME280;69007;48.978;18.066;2023-04-08T04:17:29;97667.31;;;3.07;100.00
46768;BME280;69007;48.978;18.066;2023-04-08T04:19:54;97665.44;;;3.08;100.00
46768;BME280;69007;48.978;18.066;2023-04-08T04:22:20;97667.13;;;3.02;100.00
46768;BME280;69007;48.978;18.066;2023-04-08T04:24:46;97669.41;;;3.05;100.00
46768;BME280;69007;48.978;18.066;2023-04-08T04:27:12;97679.94;;;3.00;100.00
46768;BME280;69007;48.978;18.066;2023-04-08T04:29:38;97675.81;;;3.04;100.00
46768;BME280;69007;48.978;18.066;2023-04-08T04:32:03;97669.19;;;3.00;100.00
46768;BME280;69007;48.978;18.066;2023-04-08T04:34:28;97683.66;;;3.06;100.00
46768;BME280;69007;48.978;18.066;2023-04-08T04:36:54;97669.03;;;2.95;100.00
46768;BME280;69007;48.978;18.066;2023-04-08T04:39:19;97673.22;;;2.84;100.00
46768;BME280;69007;48.978;18.066;2023-04-08T04:41:45;97685.44;;;2.80;100.00
46768;BME280;69007;48.978;18.066;2023-04-08T04:44:11;97686.66;;;2.84;100.00
46768;BME280;69007;48.978;18.066;2023-04-08T04:46:37;97675.31;;;2.82;100.00
46768;BME280;69007;48.978;18.066;2023-04-08T04:49:02;97700.84;;;2.98;100.00
46768;BME280;69007;48.978;18.066;2023-04-08T04:51:30;97674.22;;;2.90;100.00
46768;BME280;69007;48.978;18.066;2023-04-08T04:53:55;97677.56;;;2.85;100.00
46768;BME280;69007;48.978;18.066;2023-04-08T04:56:20;97697.34;;;2.98;100.00
46768;BME280;69007;48.978;18.066;2023-04-08T04:58:46;97680.84;;;2.94;100.00
46768;BME280;69007;48.978;18.066;2023-04-08T05:01:11;97675.06;;;2.84;100.00
46768;BME280;69007;48.978;18.066;2023-04-08T05:03:37;97707.72;;;2.94;100.00
46768;BME280;69007;48.978;18.066;2023-04-08T05:06:03;97686.47;;;2.86;100.00
46768;BME280;69007;48.978;18.066;2023-04-08T05:08:28;97714.28;;;2.98;100.00
46768;BME280;69007;48.978;18.066;2023-04-08T05:10:53;97704.56;;;3.04;100.00
46768;BME280;69007;48.978;18.066;2023-04-08T05:13:20;97705.94;;;3.13;100.00
46768;BME280;69007;48.978;18.066;2023-04-08T05:15:45;97716.66;;;3.20;100.00
46768;BME280;69007;48.978;18.066;2023-04-08T05:18:11;97701.59;;;3.19;100.00
46768;BME280;69007;48.978;18.066;2023-04-08T05:20:36;97715.97;;;3.31;100.00
46768;BME280;69007;48.978;18.066;2023-04-08T05:23:02;97721.94;;;3.33;100.00
46768;BME280;69007;48.978;18.066;2023-04-08T05:25:27;97730.91;;;3.27;100.00
46768;BME280;69007;48.978;18.066;2023-04-08T05:27:53;97718.00;;;3.04;100.00
46768;BME280;69007;48.978;18.066;2023-04-08T05:30:19;97723.38;;;3.04;100.00
46768;BME280;69007;48.978;18.066;2023-04-08T05:32:44;97723.34;;;3.10;100.00
46768;BME280;69007;48.978;18.066;2023-04-08T05:35:10;97712.88;;;2.95;100.00
46768;BME280;69007;48.978;18.066;2023-04-08T05:37:35;97737.09;;;2.89;100.00
46768;BME280;69007;48.978;18.066;2023-04-08T05:40:01;97737.28;;;2.94;100.00
46768;BME280;69007;48.978;18.066;2023-04-08T05:42:26;97732.97;;;2.86;100.00
46768;BME280;69007;48.978;18.066;2023-04-08T05:44:52;97730.03;;;2.94;100.00
46768;BME280;69007;48.978;18.066;2023-04-08T05:47:17;97732.09;;;2.99;100.00
46768;BME280;69007;48.978;18.066;2023-04-08T05:49:42;97733.06;;;3.05;100.00
46768;BME280;69007;48.978;18.066;2023-04-08T05:52:08;97748.16;;;3.12;100.00
46768;BME280;69007;48.978;18.066;2023-04-08T05:54:33;97734.88;;;3.18;100.00
46768;BME280;69007;48.978;18.066;2023-04-08T05:56:58;97743.09;;;3.29;100.00
46768;BME280;69007;48.978;18.066;2023-04-08T05:59:23;97738.97;;;3.27;100.00
46768;BME280;69007;48.978;18.066;2023-04-08T06:01:49;97730.22;;;3.31;100.00
46768;BME280;69007;48.978;18.066;2023-04-08T06:04:14;97758.38;;;3.36;100.00
46768;BME280;69007;48.978;18.066;2023-04-08T06:06:41;97748.41;;;3.36;100.00
46768;BME280;69007;48.978;18.066;2023-04-08T06:09:07;97752.53;;;3.45;100.00
46768;BME280;69007;48.978;18.066;2023-04-08T06:11:34;97748.50;;;3.55;100.00
46768;BME280;69007;48.978;18.066;2023-04-08T06:13:59;97745.22;;;3.53;100.00
46768;BME280;69007;48.978;18.066;2023-04-08T06:16:24;97746.44;;;3.57;100.00
46768;BME280;69007;48.978;18.066;2023-04-08T06:18:50;97749.47;;;3.67;100.00
46768;BME280;69007;48.978;18.066;2023-04-08T06:21:16;97763.00;;;3.85;100.00
46768;BME280;69007;48.978;18.066;2023-04-08T06:23:41;97748.34;;;3.81;100.00
46768;BME280;69007;48.978;18.066;2023-04-08T06:26:06;97760.78;;;4.01;100.00
46768;BME280;69007;48.978;18.066;2023-04-08T06:28:32;97762.38;;;4.09;100.00
46768;BME280;69007;48.978;18.066;2023-04-08T06:30:58;97728.53;;;3.94;100.00
46768;BME280;69007;48.978;18.066;2023-04-08T06:33:23;97777.03;;;4.19;100.00
46768;BME280;69007;48.978;18.066;2023-04-08T06:35:49;97757.09;;;4.20;100.00
46768;BME280;69007;48.978;18.066;2023-04-08T06:38:14;97759.19;;;4.18;100.00
46768;BME280;69007;48.978;18.066;2023-04-08T06:40:40;97776.31;;;4.31;100.00
46768;BME280;69007;48.978;18.066;2023-04-08T06:43:05;97766.84;;;4.21;100.00
46768;BME280;69007;48.978;18.066;2023-04-08T06:45:33;97768.88;;;4.26;100.00
46768;BME280;69007;48.978;18.066;2023-04-08T06:47:58;97766.75;;;4.10;100.00
46768;BME280;69007;48.978;18.066;2023-04-08T06:50:23;97779.38;;;4.09;100.00
46768;BME280;69007;48.978;18.066;2023-04-08T06:52:49;97778.06;;;4.18;100.00
46768;BME280;69007;48.978;18.066;2023-04-08T06:55:14;97786.72;;;4.20;100.00
46768;BME280;69007;48.978;18.066;2023-04-08T06:57:39;97783.56;;;4.05;100.00
46768;BME280;69007;48.978;18.066;2023-04-08T07:00:05;97788.22;;;4.16;100.00
46768;BME280;69007;48.978;18.066;2023-04-08T07:02:30;97785.47;;;4.23;100.00
46768;BME280;69007;48.978;18.066;2023-04-08T07:04:56;97770.13;;;4.23;100.00
46768;BME280;69007;48.978;18.066;2023-04-08T07:07:22;97778.75;;;4.32;100.00
46768;BME280;69007;48.978;18.066;2023-04-08T07:09:49;97792.72;;;4.48;100.00
46768;BME280;69007;48.978;18.066;2023-04-08T07:12:14;97805.81;;;4.44;100.00
46768;BME280;69007;48.978;18.066;2023-04-08T07:14:39;97805.97;;;4.49;100.00
46768;BME280;69007;48.978;18.066;2023-04-08T07:17:05;97791.25;;;4.27;100.00
46768;BME280;69007;48.978;18.066;2023-04-08T07:19:30;97817.41;;;4.45;100.00
46768;BME280;69007;48.978;18.066;2023-04-08T07:21:56;97803.50;;;4.66;100.00
46768;BME280;69007;48.978;18.066;2023-04-08T07:24:22;97794.47;;;4.60;100.00
46768;BME280;69007;48.978;18.066;2023-04-08T07:26:47;97784.56;;;4.54;100.00
46768;BME280;69007;48.978;18.066;2023-04-08T07:29:13;97820.91;;;4.89;100.00
46768;BME280;69007;48.978;18.066;2023-04-08T07:31:42;97813.34;;;4.97;100.00
46768;BME280;69007;48.978;18.066;2023-04-08T07:34:07;97805.59;;;5.20;100.00
46768;BME280;69007;48.978;18.066;2023-04-08T07:36:32;97822.16;;;5.42;100.00
46768;BME280;69007;48.978;18.066;2023-04-08T07:38:58;97811.00;;;5.01;100.00
46768;BME280;69007;48.978;18.066;2023-04-08T07:41:23;97808.75;;;4.98;100.00
46768;BME280;69007;48.978;18.066;2023-04-08T07:43:48;97830.06;;;5.25;100.00
46768;BME280;69007;48.978;18.066;2023-04-08T07:46:14;97836.47;;;5.42;100.00
46768;BME280;69007;48.978;18.066;2023-04-08T07:48:39;97820.63;;;5.64;100.00
46768;BME280;69007;48.978;18.066;2023-04-08T07:51:08;97834.88;;;5.83;100.00
46768;BME280;69007;48.978;18.066;2023-04-08T07:53:34;97826.66;;;5.78;100.00
46768;BME280;69007;48.978;18.066;2023-04-08T07:56:00;97822.66;;;5.81;100.00
46768;BME280;69007;48.978;18.066;2023-04-08T07:58:28;97815.06;;;5.89;100.00
46768;BME280;69007;48.978;18.066;2023-04-08T08:00:53;97835.19;;;6.05;100.00
46768;BME280;69007;48.978;18.066;2023-04-08T08:03:18;97854.03;;;6.12;100.00
46768;BME280;69007;48.978;18.066;2023-04-08T08:05:44;97847.44;;;6.20;100.00
46768;BME280;69007;48.978;18.066;2023-04-08T08:08:09;97829.88;;;5.99;100.00
46768;BME280;69007;48.978;18.066;2023-04-08T08:10:38;97839.31;;;6.08;100.00
46768;BME280;69007;48.978;18.066;2023-04-08T08:13:04;97849.09;;;5.60;100.00
46768;BME280;69007;48.978;18.066;2023-04-08T08:15:30;97863.00;;;5.76;100.00
46768;BME280;69007;48.978;18.066;2023-04-08T08:17:55;97844.63;;;5.84;100.00
46768;BME280;69007;48.978;18.066;2023-04-08T08:20:21;97848.28;;;5.60;100.00
46768;BME280;69007;48.978;18.066;2023-04-08T08:22:46;97855.56;;;5.89;100.00
46768;BME280;69007;48.978;18.066;2023-04-08T08:25:11;97864.13;;;5.86;100.00
46768;BME280;69007;48.978;18.066;2023-04-08T08:27:37;97847.16;;;5.98;100.00
46768;BME280;69007;48.978;18.066;2023-04-08T08:30:05;97859.00;;;5.97;100.00
46768;BME280;69007;48.978;18.066;2023-04-08T08:32:31;97858.13;;;6.15;100.00
46768;BME280;69007;48.978;18.066;2023-04-08T08:34:56;97847.13;;;6.28;100.00
46768;BME280;69007;48.978;18.066;2023-04-08T08:37:22;97867.47;;;6.31;100.00
46768;BME280;69007;48.978;18.066;2023-04-08T08:39:47;97864.25;;;6.22;100.00
46768;BME280;69007;48.978;18.066;2023-04-08T08:42:23;97855.22;;;6.40;100.00
46768;BME280;69007;48.978;18.066;2023-04-08T08:44:49;97845.84;;;6.42;100.00
46768;BME280;69007;48.978;18.066;2023-04-08T08:47:15;97868.06;;;6.56;100.00
46768;BME280;69007;48.978;18.066;2023-04-08T08:49:41;97866.91;;;6.88;100.00
46768;BME280;69007;48.978;18.066;2023-04-08T08:52:07;97857.44;;;7.26;100.00
46768;BME280;69007;48.978;18.066;2023-04-08T08:54:32;97861.31;;;7.42;100.00
46768;BME280;69007;48.978;18.066;2023-04-08T08:56:58;97856.84;;;7.76;100.00
46768;BME280;69007;48.978;18.066;2023-04-08T08:59:23;97863.31;;;7.75;100.00
46768;BME280;69007;48.978;18.066;2023-04-08T09:01:49;97877.88;;;8.15;100.00
46768;BME280;69007;48.978;18.066;2023-04-08T09:06:41;97884.69;;;8.46;100.00
46768;BME280;69007;48.978;18.066;2023-04-08T09:09:07;97869.25;;;8.46;100.00
46768;BME280;69007;48.978;18.066;2023-04-08T09:11:38;97887.00;;;8.54;100.00
46768;BME280;69007;48.978;18.066;2023-04-08T09:14:05;97882.66;;;8.70;100.00
46768;BME280;69007;48.978;18.066;2023-04-08T09:16:31;97869.78;;;8.32;100.00
46768;BME280;69007;48.978;18.066;2023-04-08T09:19:08;97881.03;;;8.40;100.00
46768;BME280;69007;48.978;18.066;2023-04-08T09:21:37;97888.06;;;8.24;100.00
46768;BME280;69007;48.978;18.066;2023-04-08T09:24:05;97900.53;;;7.80;100.00
46768;BME280;69007;48.978;18.066;2023-04-08T09:26:30;97917.47;;;7.87;100.00
46768;BME280;69007;48.978;18.066;2023-04-08T09:29:00;97908.09;;;7.78;100.00
46768;BME280;69007;48.978;18.066;2023-04-08T09:31:28;97886.44;;;7.94;100.00
46768;BME280;69007;48.978;18.066;2023-04-08T09:34:07;97911.09;;;8.22;100.00
46768;BME280;69007;48.978;18.066;2023-04-08T09:36:33;97916.69;;;8.32;100.00
46768;BME280;69007;48.978;18.066;2023-04-08T09:38:58;97903.09;;;8.61;100.00
46768;BME280;69007;48.978;18.066;2023-04-08T09:41:27;97904.50;;;8.63;100.00
46768;BME280;69007;48.978;18.066;2023-04-08T09:43:54;97897.75;;;9.00;100.00
46768;BME280;69007;48.978;18.066;2023-04-08T09:54:43;97901.63;;;8.70;100.00
46768;BME280;69007;48.978;18.066;2023-04-08T09:57:10;97905.84;;;8.78;100.00
46768;BME280;69007;48.978;18.066;2023-04-08T09:59:44;97873.34;;;8.49;100.00
46768;BME280;69007;48.978;18.066;2023-04-08T10:02:16;97903.94;;;8.33;100.00
46768;BME280;69007;48.978;18.066;2023-04-08T10:04:44;97900.28;;;8.10;100.00
46768;BME280;69007;48.978;18.066;2023-04-08T10:07:13;97912.81;;;7.59;100.00
46768;BME280;69007;48.978;18.066;2023-04-08T10:09:39;97903.84;;;7.29;100.00
46768;BME280;69007;48.978;18.066;2023-04-08T10:12:07;97904.66;;;7.30;100.00
46768;BME280;69007;48.978;18.066;2023-04-08T10:14:33;97908.44;;;7.05;100.00
46768;BME280;69007;48.978;18.066;2023-04-08T10:17:26;97909.50;;;7.28;100.00
46768;BME280;69007;48.978;18.066;2023-04-08T10:19:52;97906.63;;;7.46;100.00
46768;BME280;69007;48.978;18.066;2023-04-08T10:27:40;97920.56;;;7.67;100.00
46768;BME280;69007;48.978;18.066;2023-04-08T10:32:51;97902.59;;;7.49;100.00
46768;BME280;69007;48.978;18.066;2023-04-08T10:35:16;97902.53;;;7.32;100.00
46768;BME280;69007;48.978;18.066;2023-04-08T10:37:42;97911.91;;;7.53;100.00
46768;BME280;69007;48.978;18.066;2023-04-08T10:40:31;97913.47;;;7.89;100.00
46768;BME280;69007;48.978;18.066;2023-04-08T10:43:01;97901.19;;;7.99;100.00
46768;BME280;69007;48.978;18.066;2023-04-08T10:45:27;97887.03;;;7.97;100.00
46768;BME280;69007;48.978;18.066;2023-04-08T10:47:53;97900.88;;;8.12;100.00
46768;BME280;69007;48.978;18.066;2023-04-08T10:50:19;97904.97;;;8.15;100.00
46768;BME280;69007;48.978;18.066;2023-04-08T10:52:52;97892.06;;;8.05;100.00
46768;BME280;69007;48.978;18.066;2023-04-08T10:55:22;97894.09;;;7.98;100.00
46768;BME280;69007;48.978;18.066;2023-04-08T10:57:49;97893.13;;;7.75;100.00
46768;BME280;69007;48.978;18.066;2023-04-08T11:00:31;97906.66;;;7.75;100.00
46768;BME280;69007;48.978;18.066;2023-04-08T11:03:01;97894.84;;;7.52;100.00
46768;BME280;69007;48.978;18.066;2023-04-08T11:05:26;97895.34;;;7.37;100.00
46768;BME280;69007;48.978;18.066;2023-04-08T11:07:52;97893.38;;;7.21;100.00
46768;BME280;69007;48.978;18.066;2023-04-08T11:10:17;97894.91;;;7.05;100.00
46768;BME280;69007;48.978;18.066;2023-04-08T11:12:43;97901.25;;;6.87;100.00
46768;BME280;69007;48.978;18.066;2023-04-08T11:15:09;97912.31;;;6.74;100.00
46768;BME280;69007;48.978;18.066;2023-04-08T11:17:35;97899.25;;;6.59;100.00
46768;BME280;69007;48.978;18.066;2023-04-08T11:20:01;97924.53;;;6.76;100.00
46768;BME280;69007;48.978;18.066;2023-04-08T11:22:30;97906.19;;;6.90;100.00
46768;BME280;69007;48.978;18.066;2023-04-08T11:24:58;97906.44;;;6.89;100.00
46768;BME280;69007;48.978;18.066;2023-04-08T11:27:23;97921.34;;;6.91;100.00
46768;BME280;69007;48.978;18.066;2023-04-08T11:29:52;97917.13;;;6.95;100.00
46768;BME280;69007;48.978;18.066;2023-04-08T11:32:18;97884.09;;;7.05;100.00
46768;BME280;69007;48.978;18.066;2023-04-08T11:34:43;97872.41;;;7.28;100.00
46768;BME280;69007;48.978;18.066;2023-04-08T11:37:11;97877.56;;;7.42;100.00
46768;BME280;69007;48.978;18.066;2023-04-08T11:39:42;97899.28;;;7.59;100.00
46768;BME280;69007;48.978;18.066;2023-04-08T11:42:08;97908.59;;;7.63;100.00
46768;BME280;69007;48.978;18.066;2023-04-08T11:44:33;97911.41;;;7.68;100.00
46768;BME280;69007;48.978;18.066;2023-04-08T11:46:59;97914.81;;;7.63;100.00
46768;BME280;69007;48.978;18.066;2023-04-08T11:49:26;97882.22;;;7.58;100.00
46768;BME280;69007;48.978;18.066;2023-04-08T11:51:56;97909.09;;;7.88;100.00
46768;BME280;69007;48.978;18.066;2023-04-08T11:54:28;97903.50;;;9.65;100.00
46768;BME280;69007;48.978;18.066;2023-04-08T11:56:54;97918.00;;;16.89;100.00
46768;BME280;69007;48.978;18.066;2023-04-08T11:59:22;97912.97;;;10.88;100.00
46768;BME280;69007;48.978;18.066;2023-04-08T12:01:47;97884.75;;;9.19;100.00
46768;BME280;69007;48.978;18.066;2023-04-08T12:04:13;97903.78;;;8.85;100.00
46768;BME280;69007;48.978;18.066;2023-04-08T12:06:38;97905.72;;;8.73;100.00
46768;BME280;69007;48.978;18.066;2023-04-08T12:09:05;97862.22;;;8.34;100.00
46768;BME280;69007;48.978;18.066;2023-04-08T12:11:32;97879.63;;;8.38;100.00
46768;BME280;69007;48.978;18.066;2023-04-08T12:13:57;97904.44;;;8.29;100.00
46768;BME280;69007;48.978;18.066;2023-04-08T12:16:23;97881.66;;;8.14;100.00
46768;BME280;69007;48.978;18.066;2023-04-08T12:18:48;97905.66;;;8.22;100.00
46768;BME280;69007;48.978;18.066;2023-04-08T12:21:14;97901.38;;;8.26;100.00
46768;BME280;69007;48.978;18.066;2023-04-08T12:23:39;97874.75;;;8.06;100.00
46768;BME280;69007;48.978;18.066;2023-04-08T12:26:05;97884.06;;;7.98;100.00
46768;BME280;69007;48.978;18.066;2023-04-08T12:28:30;97910.41;;;7.86;100.00
46768;BME280;69007;48.978;18.066;2023-04-08T12:30:55;97919.97;;;7.77;100.00
46768;BME280;69007;48.978;18.066;2023-04-08T12:33:21;97920.19;;;7.75;100.00
46768;BME280;69007;48.978;18.066;2023-04-08T12:35:46;97888.00;;;7.50;100.00
46768;BME280;69007;48.978;18.066;2023-04-08T12:38:12;97901.34;;;7.40;100.00
46768;BME280;69007;48.978;18.066;2023-04-08T12:40:37;97912.19;;;7.40;100.00
46768;BME280;69007;48.978;18.066;2023-04-08T12:43:02;97900.41;;;7.46;100.00
46768;BME280;69007;48.978;18.066;2023-04-08T12:45:28;97920.81;;;7.65;100.00
46768;BME280;69007;48.978;18.066;2023-04-08T12:47:53;97901.97;;;7.70;100.00
46768;BME280;69007;48.978;18.066;2023-04-08T12:50:18;97882.50;;;7.85;100.00
46768;BME280;69007;48.978;18.066;2023-04-08T12:52:43;97908.81;;;8.02;100.00
46768;BME280;69007;48.978;18.066;2023-04-08T12:55:09;97880.16;;;7.36;100.00
46768;BME280;69007;48.978;18.066;2023-04-08T12:57:34;97885.03;;;7.23;100.00
46768;BME280;69007;48.978;18.066;2023-04-08T13:00:00;97888.66;;;7.16;100.00
46768;BME280;69007;48.978;18.066;2023-04-08T13:02:25;97909.97;;;7.25;100.00
46768;BME280;69007;48.978;18.066;2023-04-08T13:04:51;97895.25;;;6.97;100.00